Time;durP1;ratioP1;P1;durP2;ratioP2;P2;SDS_P1;SDS_P2;PMS_P1;PMS_P2;Temp;Humidity;BMP_temperature;BMP_pressure;BME280_temperature;BME280_humidity;BME280_pressure;Samples;Min_cycle;Max_cycle;Signal;HPM_P1;HPM_P2
2021/12/30 00:01:22;;;;;;;12.43;3.70;;;12.10;99.90;;;;;;5043497;28;20190;-78
2021/12/30 00:03:49;;;;;;;13.93;6.20;;;12.10;99.90;;;;;;5047054;28;20424;-78
2021/12/30 00:06:18;;;;;;;9.50;3.40;;;12.10;99.90;;;;;;5040433;28;20428;-78
2021/12/30 00:08:45;;;;;;;12.13;3.53;;;12.10;99.90;;;;;;5035633;28;20452;-79
2021/12/30 00:11:10;;;;;;;16.27;3.93;;;12.00;99.90;;;;;;5037637;28;20446;-79
2021/12/30 00:13:39;;;;;;;17.60;4.17;;;12.00;99.90;;;;;;5037210;28;20540;-78
2021/12/30 00:16:05;;;;;;;15.27;4.20;;;12.00;99.90;;;;;;5052305;28;20167;-77
2021/12/30 00:18:31;;;;;;;18.63;7.90;;;12.00;99.90;;;;;;5053398;28;20423;-78
2021/12/30 00:20:57;;;;;;;17.90;3.80;;;12.00;99.90;;;;;;5037337;28;20409;-79
2021/12/30 00:23:23;;;;;;;13.17;4.03;;;12.00;99.90;;;;;;5039949;28;20420;-79
2021/12/30 00:25:49;;;;;;;16.00;4.10;;;12.00;99.90;;;;;;5038443;28;20167;-79
2021/12/30 00:28:21;;;;;;;17.33;4.67;;;12.00;99.90;;;;;;5038237;28;20650;-78
2021/12/30 00:30:48;;;;;;;12.67;3.77;;;12.00;99.90;;;;;;5035818;28;20420;-79
2021/12/30 00:33:15;;;;;;;20.43;4.43;;;12.00;99.90;;;;;;5037679;28;20453;-78
2021/12/30 00:35:41;;;;;;;21.90;4.30;;;12.00;99.90;;;;;;5036576;28;20413;-79
2021/12/30 00:38:08;;;;;;;17.17;4.10;;;12.00;99.90;;;;;;5036899;28;20428;-79
2021/12/30 00:40:35;;;;;;;10.00;3.17;;;12.00;99.90;;;;;;5037801;28;20686;-79
2021/12/30 00:43:01;;;;;;;21.93;3.80;;;12.00;99.90;;;;;;5038016;28;20421;-79
2021/12/30 00:45:28;;;;;;;16.13;5.20;;;12.00;99.90;;;;;;5036217;28;20436;-78
2021/12/30 00:47:54;;;;;;;13.80;3.77;;;12.00;99.90;;;;;;5043421;28;20185;-78
2021/12/30 00:50:19;;;;;;;13.90;3.80;;;12.00;99.90;;;;;;5035768;28;20524;-79
2021/12/30 00:52:45;;;;;;;12.10;3.77;;;12.00;99.90;;;;;;5037458;28;20198;-79
2021/12/30 00:55:11;;;;;;;14.60;4.30;;;12.00;99.90;;;;;;5053361;28;20242;-79
2021/12/30 00:57:37;;;;;;;18.40;4.40;;;11.90;99.90;;;;;;5037000;28;20182;-79
2021/12/30 01:00:07;;;;;;;12.57;4.10;;;11.90;99.90;;;;;;5037105;28;20465;-79
2021/12/30 01:02:33;;;;;;;20.70;4.20;;;11.90;99.90;;;;;;5052878;28;20413;-78
2021/12/30 01:04:58;;;;;;;15.77;3.70;;;11.90;99.90;;;;;;5037491;28;20985;-78
2021/12/30 01:07:24;;;;;;;19.90;4.20;;;11.90;99.90;;;;;;5042495;28;20171;-79
2021/12/30 01:09:50;;;;;;;18.37;3.43;;;11.90;99.90;;;;;;5043817;28;20170;-79
2021/12/30 01:12:18;;;;;;;16.10;3.80;;;11.90;99.90;;;;;;5045201;28;20195;-78
2021/12/30 01:14:46;;;;;;;15.50;4.37;;;12.00;99.90;;;;;;5042939;28;20186;-78
2021/12/30 01:17:21;;;;;;;14.13;4.40;;;12.00;99.90;;;;;;5046610;28;20410;-79
2021/12/30 01:19:50;;;;;;;15.93;3.90;;;11.90;99.90;;;;;;5043353;28;20464;-79
2021/12/30 01:22:22;;;;;;;14.77;3.70;;;11.90;99.90;;;;;;5038798;28;20429;-79
2021/12/30 01:24:48;;;;;;;16.13;4.07;;;11.90;99.90;;;;;;5037843;28;20480;-79
2021/12/30 01:27:14;;;;;;;19.67;3.33;;;11.90;99.90;;;;;;5036410;28;20445;-79
2021/12/30 01:29:40;;;;;;;16.40;3.87;;;11.90;99.90;;;;;;5045131;28;20480;-78
2021/12/30 01:32:06;;;;;;;13.10;3.00;;;11.90;99.90;;;;;;5049664;28;20449;-78
2021/12/30 01:34:33;;;;;;;13.87;3.63;;;11.80;99.90;;;;;;5041723;28;20171;-78
2021/12/30 01:37:01;;;;;;;17.70;3.27;;;11.90;99.90;;;;;;5038139;28;20440;-79
2021/12/30 01:39:28;;;;;;;20.20;4.77;;;11.90;99.90;;;;;;5035169;28;20441;-79
2021/12/30 01:41:55;;;;;;;16.97;4.57;;;11.90;99.90;;;;;;5037911;28;20405;-79
2021/12/30 01:44:22;;;;;;;20.17;3.63;;;11.90;99.90;;;;;;5037309;28;20497;-79
2021/12/30 01:46:49;;;;;;;10.67;3.07;;;11.90;99.90;;;;;;5035185;28;20492;-79
2021/12/30 01:49:15;;;;;;;13.40;3.20;;;11.90;99.90;;;;;;5037809;28;20513;-79
2021/12/30 01:51:42;;;;;;;12.30;2.87;;;11.90;99.90;;;;;;5051923;28;20421;-78
2021/12/30 01:54:08;;;;;;;15.30;4.57;;;11.90;99.90;;;;;;5034899;28;20409;-79
2021/12/30 01:56:34;;;;;;;18.67;3.53;;;12.00;99.90;;;;;;5034796;28;20409;-78
2021/12/30 01:59:02;;;;;;;10.90;4.03;;;12.00;99.90;;;;;;5043800;28;20451;-78
2021/12/30 02:01:28;;;;;;;15.33;3.00;;;12.00;99.90;;;;;;5042102;28;20173;-80
2021/12/30 02:03:54;;;;;;;22.87;3.40;;;12.00;99.90;;;;;;5061505;28;20485;-79
2021/12/30 02:06:20;;;;;;;15.63;3.47;;;12.10;99.90;;;;;;5046336;28;20475;-79
2021/12/30 02:08:46;;;;;;;17.67;4.00;;;12.10;99.90;;;;;;5042776;28;20239;-79
2021/12/30 02:11:11;;;;;;;11.50;2.60;;;12.10;99.90;;;;;;5042967;28;20448;-80
2021/12/30 02:13:37;;;;;;;18.00;4.40;;;12.10;99.90;;;;;;5039609;28;20997;-79
2021/12/30 02:16:03;;;;;;;15.20;3.27;;;12.10;99.90;;;;;;5036055;28;20159;-79
2021/12/30 02:18:30;;;;;;;14.63;3.50;;;12.10;99.90;;;;;;5042807;28;20190;-78
2021/12/30 02:21:01;;;;;;;13.87;3.00;;;12.10;99.90;;;;;;5043502;28;20525;-78
2021/12/30 02:23:33;;;;;;;13.00;3.47;;;12.10;99.90;;;;;;5037607;28;20405;-78
2021/12/30 02:26:03;;;;;;;10.30;3.30;;;12.10;99.90;;;;;;5047103;28;20417;-79
2021/12/30 02:28:31;;;;;;;10.63;3.17;;;12.10;99.90;;;;;;5050390;28;20830;-78
2021/12/30 02:31:00;;;;;;;14.03;4.00;;;12.10;99.90;;;;;;5036605;28;20467;-79
2021/12/30 02:33:27;;;;;;;15.07;4.47;;;12.10;99.90;;;;;;5036565;28;20491;-79
2021/12/30 02:35:54;;;;;;;9.10;2.73;;;12.10;99.90;;;;;;5037251;28;20400;-79
2021/12/30 02:38:21;;;;;;;7.33;2.83;;;12.20;99.90;;;;;;5039841;28;20441;-79
2021/12/30 02:40:50;;;;;;;14.30;2.80;;;12.20;99.90;;;;;;5040633;28;20485;-79
2021/12/30 02:43:21;;;;;;;10.30;3.23;;;12.20;99.90;;;;;;5042540;28;20451;-77
2021/12/30 02:45:47;;;;;;;18.60;3.70;;;12.30;99.90;;;;;;5034635;28;20528;-78
2021/12/30 02:48:16;;;;;;;14.50;3.73;;;12.30;99.90;;;;;;5037935;28;20901;-80
2021/12/30 02:50:43;;;;;;;10.27;3.47;;;12.40;99.90;;;;;;5035836;28;20421;-78
2021/12/30 02:53:10;;;;;;;15.23;3.00;;;12.40;99.90;;;;;;5034277;28;20507;-79
2021/12/30 02:55:35;;;;;;;12.83;2.73;;;12.40;99.90;;;;;;5036697;28;20753;-78
2021/12/30 02:58:01;;;;;;;10.10;3.63;;;12.50;99.90;;;;;;5042803;28;20510;-78
2021/12/30 03:00:29;;;;;;;18.03;3.60;;;12.50;99.90;;;;;;5046607;28;20197;-79
2021/12/30 03:02:54;;;;;;;16.13;3.00;;;12.50;99.90;;;;;;5037281;28;20186;-79
2021/12/30 03:05:21;;;;;;;8.70;3.30;;;12.50;99.90;;;;;;5021030;28;20485;-78
2021/12/30 03:07:46;;;;;;;11.07;4.57;;;12.50;99.90;;;;;;5020185;28;20231;-79
2021/12/30 03:10:17;;;;;;;8.53;3.27;;;12.50;99.90;;;;;;5021584;28;20449;-79
2021/12/30 03:12:44;;;;;;;14.77;3.67;;;12.50;99.90;;;;;;5031156;28;20189;-78
2021/12/30 03:15:15;;;;;;;8.40;3.20;;;12.50;99.90;;;;;;5015793;28;20816;-78
2021/12/30 03:17:41;;;;;;;13.80;3.53;;;12.50;99.90;;;;;;5002181;28;20830;-78
2021/12/30 03:20:09;;;;;;;10.93;3.67;;;12.50;99.90;;;;;;5038083;28;20461;-78
2021/12/30 03:22:43;;;;;;;11.60;3.10;;;12.50;99.90;;;;;;5038400;28;20440;-79
2021/12/30 03:25:11;;;;;;;13.37;3.47;;;12.50;99.90;;;;;;5057608;28;20475;-78
2021/12/30 03:27:37;;;;;;;6.47;3.00;;;12.50;99.90;;;;;;5047382;28;20433;-79
2021/12/30 03:30:06;;;;;;;10.83;3.93;;;12.50;99.90;;;;;;5052788;28;20588;-79
2021/12/30 03:32:32;;;;;;;16.40;3.53;;;12.40;99.90;;;;;;5035421;28;20831;-79
2021/12/30 03:34:58;;;;;;;12.93;4.07;;;12.40;99.90;;;;;;5035452;28;20409;-78
2021/12/30 03:37:24;;;;;;;8.00;3.37;;;12.40;99.90;;;;;;5039265;28;20182;-79
2021/12/30 03:39:50;;;;;;;10.33;4.00;;;12.40;99.90;;;;;;5044773;28;20451;-78
2021/12/30 03:42:16;;;;;;;6.07;2.70;;;12.40;99.90;;;;;;5038631;28;20175;-79
2021/12/30 03:44:43;;;;;;;6.10;2.93;;;12.40;99.90;;;;;;5025902;28;20426;-78
2021/12/30 03:47:13;;;;;;;4.27;3.60;;;12.50;99.90;;;;;;5028396;28;20440;-79
2021/12/30 03:49:43;;;;;;;6.40;3.10;;;12.40;99.90;;;;;;5031416;28;20448;-78
2021/12/30 03:52:11;;;;;;;4.33;3.30;;;12.40;99.90;;;;;;5035106;28;20454;-78
2021/12/30 03:54:37;;;;;;;7.97;3.20;;;12.40;99.90;;;;;;5034439;28;20494;-79
2021/12/30 03:57:03;;;;;;;7.80;3.53;;;12.40;99.90;;;;;;5032359;28;20418;-79
2021/12/30 03:59:29;;;;;;;4.63;2.63;;;12.40;99.90;;;;;;5033588;28;20429;-79
2021/12/30 04:01:55;;;;;;;14.13;3.07;;;12.40;99.90;;;;;;5033543;28;20170;-78
2021/12/30 04:04:20;;;;;;;6.37;3.07;;;12.40;99.90;;;;;;5033386;28;20219;-78
2021/12/30 04:06:47;;;;;;;6.10;2.83;;;12.40;99.90;;;;;;5037884;28;20197;-78
2021/12/30 04:09:13;;;;;;;7.33;3.67;;;12.40;99.90;;;;;;5038221;28;20182;-78
2021/12/30 04:11:39;;;;;;;8.57;3.20;;;12.40;99.90;;;;;;5037854;28;20432;-78
2021/12/30 04:14:05;;;;;;;8.07;3.80;;;12.40;99.90;;;;;;5037636;28;20198;-80
2021/12/30 04:16:32;;;;;;;6.30;2.60;;;12.40;99.90;;;;;;5039109;28;20169;-77
2021/12/30 04:18:58;;;;;;;6.33;2.93;;;12.40;99.90;;;;;;5038321;28;20655;-78
2021/12/30 04:21:25;;;;;;;8.23;3.20;;;12.40;99.90;;;;;;5038092;28;20425;-79
2021/12/30 04:23:52;;;;;;;8.90;2.50;;;12.30;99.90;;;;;;5039445;28;20155;-78
2021/12/30 04:26:17;;;;;;;13.87;3.57;;;12.30;99.90;;;;;;5055991;28;20444;-78
2021/12/30 04:28:44;;;;;;;5.53;2.40;;;12.30;99.90;;;;;;5045245;28;20433;-78
2021/12/30 04:31:10;;;;;;;10.90;2.97;;;12.30;99.90;;;;;;5022608;28;20220;-78
2021/12/30 04:33:36;;;;;;;8.90;3.27;;;12.30;99.90;;;;;;5034777;28;20449;-78
2021/12/30 04:36:03;;;;;;;5.17;3.27;;;12.30;99.90;;;;;;5036732;28;20417;-78
2021/12/30 04:38:31;;;;;;;6.13;3.53;;;12.30;99.90;;;;;;5034894;28;20175;-77
2021/12/30 04:40:57;;;;;;;11.03;4.00;;;12.30;99.90;;;;;;5033822;28;20767;-78
2021/12/30 04:43:23;;;;;;;9.27;4.40;;;12.30;99.90;;;;;;5036643;28;20409;-78
2021/12/30 04:45:49;;;;;;;7.10;3.37;;;12.30;99.90;;;;;;5033799;28;20408;-78
2021/12/30 04:48:16;;;;;;;11.57;4.80;;;12.30;99.90;;;;;;5035728;28;20246;-79
2021/12/30 04:50:44;;;;;;;4.87;3.20;;;12.30;99.90;;;;;;5036254;28;20596;-78
2021/12/30 04:53:15;;;;;;;5.07;3.03;;;12.30;99.90;;;;;;5036325;28;20538;-79
2021/12/30 04:55:41;;;;;;;12.80;4.80;;;12.30;99.90;;;;;;5035609;28;20417;-78
2021/12/30 04:58:09;;;;;;;6.00;3.27;;;12.20;99.90;;;;;;5037870;28;20500;-78
2021/12/30 05:00:35;;;;;;;11.50;3.80;;;12.20;99.90;;;;;;5040584;28;20449;-77
2021/12/30 05:03:12;;;;;;;9.03;5.00;;;12.20;99.90;;;;;;5034274;28;20528;-78
2021/12/30 05:05:49;;;;;;;7.80;3.57;;;12.20;99.90;;;;;;5041397;28;20408;-78
2021/12/30 05:08:21;;;;;;;12.37;4.40;;;12.20;99.90;;;;;;5044685;28;20427;-79
2021/12/30 05:10:48;;;;;;;6.10;3.70;;;12.20;99.90;;;;;;5035502;28;21072;-77
2021/12/30 05:13:14;;;;;;;8.73;3.23;;;12.20;99.90;;;;;;5036220;28;20465;-77
2021/12/30 05:15:40;;;;;;;4.40;2.87;;;12.20;99.90;;;;;;5035626;28;20468;-79
2021/12/30 05:18:09;;;;;;;10.23;4.30;;;12.30;99.90;;;;;;5036496;28;20421;-78
2021/12/30 05:20:35;;;;;;;5.83;3.10;;;12.30;99.90;;;;;;5043753;28;20452;-79
2021/12/30 05:23:01;;;;;;;6.10;3.50;;;12.30;99.90;;;;;;5038260;28;20440;-79
2021/12/30 05:25:27;;;;;;;7.07;2.33;;;12.30;99.90;;;;;;5041960;28;20481;-78
2021/12/30 05:27:53;;;;;;;6.30;2.60;;;12.40;99.90;;;;;;5042724;28;20229;-79
2021/12/30 05:30:21;;;;;;;7.57;2.60;;;12.40;99.90;;;;;;5038265;28;20453;-78
2021/12/30 05:32:48;;;;;;;6.33;2.47;;;12.50;99.90;;;;;;5034321;28;20762;-77
2021/12/30 05:35:14;;;;;;;2.87;1.70;;;12.50;99.90;;;;;;5033247;28;20421;-78
2021/12/30 05:37:41;;;;;;;4.83;1.57;;;12.60;99.90;;;;;;5035183;28;20413;-79
2021/12/30 05:40:10;;;;;;;2.13;1.47;;;12.60;99.90;;;;;;5035266;28;20456;-79
2021/12/30 05:42:37;;;;;;;3.33;1.50;;;12.70;99.90;;;;;;5035890;28;20405;-78
2021/12/30 05:45:03;;;;;;;2.57;1.23;;;12.70;99.90;;;;;;5032221;28;20431;-77
2021/12/30 05:47:29;;;;;;;1.60;1.20;;;12.80;99.90;;;;;;5033859;28;20435;-77
2021/12/30 05:49:54;;;;;;;2.50;1.70;;;12.80;99.90;;;;;;5032138;28;20431;-77
2021/12/30 05:52:20;;;;;;;1.53;1.40;;;12.90;99.90;;;;;;5033726;28;20679;-78
2021/12/30 05:54:46;;;;;;;4.03;1.43;;;13.00;99.90;;;;;;5041436;28;20163;-77
2021/12/30 05:57:12;;;;;;;4.30;1.47;;;13.00;99.90;;;;;;5049995;28;20190;-77
2021/12/30 05:59:38;;;;;;;1.63;1.20;;;13.00;99.90;;;;;;5040088;28;20698;-78
2021/12/30 06:02:04;;;;;;;2.47;1.50;;;13.10;99.90;;;;;;5034452;28;20625;-78
2021/12/30 06:04:30;;;;;;;1.30;1.03;;;13.10;99.90;;;;;;5031993;28;20456;-78
2021/12/30 06:06:55;;;;;;;2.57;1.00;;;13.20;99.90;;;;;;5047548;28;20434;-77
2021/12/30 06:09:24;;;;;;;4.70;1.13;;;13.20;99.90;;;;;;5032544;28;20179;-77
2021/12/30 06:11:49;;;;;;;1.70;1.00;;;13.20;99.90;;;;;;5032843;28;20184;-77
2021/12/30 06:14:15;;;;;;;1.27;0.90;;;13.30;99.90;;;;;;5033609;28;20409;-79
2021/12/30 06:16:41;;;;;;;2.50;0.93;;;13.30;99.90;;;;;;5033573;28;20184;-78
2021/12/30 06:19:06;;;;;;;1.70;1.13;;;13.40;99.90;;;;;;5034315;28;20202;-78
2021/12/30 06:21:32;;;;;;;1.30;1.00;;;13.40;99.90;;;;;;5034426;28;20181;-79
2021/12/30 06:23:58;;;;;;;2.77;1.10;;;13.40;99.90;;;;;;5034230;28;20536;-78
2021/12/30 06:26:23;;;;;;;1.60;0.93;;;13.40;99.90;;;;;;5033926;28;20167;-78
2021/12/30 06:28:49;;;;;;;1.30;0.70;;;13.40;99.90;;;;;;5034584;28;20707;-79
2021/12/30 06:31:15;;;;;;;1.00;0.80;;;13.40;99.90;;;;;;5032475;28;20587;-77
2021/12/30 06:33:40;;;;;;;1.53;1.20;;;13.50;99.90;;;;;;5031815;28;20210;-78
2021/12/30 06:36:08;;;;;;;1.53;0.97;;;13.50;99.90;;;;;;5031058;28;20259;-78
2021/12/30 06:38:35;;;;;;;2.00;1.30;;;13.50;99.90;;;;;;5032108;28;20186;-78
2021/12/30 06:41:01;;;;;;;1.37;1.13;;;13.50;99.90;;;;;;5031476;28;20500;-78
2021/12/30 06:43:26;;;;;;;1.20;1.00;;;13.50;99.90;;;;;;5033065;28;20415;-78
2021/12/30 06:45:52;;;;;;;1.47;1.00;;;13.60;99.90;;;;;;5033110;28;20434;-79
2021/12/30 06:48:19;;;;;;;1.07;0.90;;;13.60;99.90;;;;;;5032854;28;20175;-77
2021/12/30 06:50:52;;;;;;;1.10;0.90;;;13.60;99.90;;;;;;5038212;28;20209;-77
2021/12/30 06:53:22;;;;;;;3.30;1.40;;;13.60;99.90;;;;;;5036247;28;20553;-78
2021/12/30 06:55:50;;;;;;;2.50;1.10;;;13.70;99.90;;;;;;5033272;28;20609;-79
2021/12/30 06:58:16;;;;;;;1.23;0.90;;;13.70;99.90;;;;;;5038531;28;20406;-79
2021/12/30 07:00:42;;;;;;;1.40;0.90;;;13.70;99.90;;;;;;5034433;28;20833;-79
2021/12/30 07:03:08;;;;;;;3.07;1.40;;;13.70;99.90;;;;;;5034936;28;20421;-79
2021/12/30 07:05:34;;;;;;;1.90;1.10;;;13.80;99.90;;;;;;5033008;28;20185;-79
2021/12/30 07:08:00;;;;;;;1.83;1.20;;;13.80;99.90;;;;;;5035022;28;20174;-78
2021/12/30 07:10:27;;;;;;;2.67;1.00;;;13.80;99.90;;;;;;5034822;28;20448;-79
2021/12/30 07:12:52;;;;;;;1.30;1.20;;;13.80;99.90;;;;;;5033881;28;20989;-79
2021/12/30 07:15:18;;;;;;;2.00;1.00;;;13.80;99.90;;;;;;5032486;28;20534;-79
2021/12/30 07:17:44;;;;;;;2.27;0.90;;;13.80;99.90;;;;;;5017021;28;20178;-78
2021/12/30 07:20:10;;;;;;;1.37;0.93;;;13.90;99.90;;;;;;5038808;28;20583;-79
2021/12/30 07:22:36;;;;;;;1.20;0.90;;;13.90;99.90;;;;;;5035757;28;20180;-78
2021/12/30 07:25:03;;;;;;;1.00;0.77;;;13.90;99.90;;;;;;5049444;28;20516;-78
2021/12/30 07:27:29;;;;;;;2.23;0.87;;;13.90;99.90;;;;;;5035097;28;20423;-79
2021/12/30 07:29:56;;;;;;;1.00;0.70;;;13.90;99.90;;;;;;5041039;28;20536;-79
2021/12/30 07:32:22;;;;;;;1.33;0.93;;;14.00;99.90;;;;;;5044248;28;20200;-79
2021/12/30 07:34:48;;;;;;;1.40;0.90;;;14.00;99.90;;;;;;5039672;28;20428;-79
2021/12/30 07:37:14;;;;;;;2.27;0.93;;;14.00;99.90;;;;;;5040611;28;20489;-79
2021/12/30 07:39:44;;;;;;;1.20;1.00;;;14.00;99.90;;;;;;5044278;28;20424;-79
2021/12/30 07:42:11;;;;;;;1.87;1.70;;;14.00;99.90;;;;;;5046335;28;20416;-79
2021/12/30 07:44:38;;;;;;;2.03;1.47;;;14.00;99.90;;;;;;5044613;28;20426;-79
2021/12/30 07:47:05;;;;;;;2.17;1.47;;;14.00;99.90;;;;;;5031375;28;20418;-79
2021/12/30 07:49:32;;;;;;;3.73;1.33;;;14.00;99.90;;;;;;5047789;28;20771;-80
2021/12/30 07:51:59;;;;;;;1.57;1.13;;;14.00;99.90;;;;;;5039410;28;20984;-78
2021/12/30 07:54:25;;;;;;;2.27;1.50;;;14.00;99.90;;;;;;5037603;28;20474;-78
2021/12/30 07:56:50;;;;;;;3.80;2.10;;;14.00;99.90;;;;;;5037224;28;20429;-79
2021/12/30 07:59:16;;;;;;;1.70;1.33;;;14.00;99.90;;;;;;5037039;28;20791;-79
2021/12/30 08:01:42;;;;;;;2.60;1.90;;;14.00;99.90;;;;;;5037117;28;20240;-78
2021/12/30 08:04:08;;;;;;;1.80;1.53;;;14.00;99.90;;;;;;5036526;28;20622;-80
2021/12/30 08:06:34;;;;;;;4.13;2.00;;;14.00;99.90;;;;;;5038621;28;20684;-78
2021/12/30 08:09:00;;;;;;;1.63;1.53;;;14.00;99.90;;;;;;5041177;28;20186;-79
2021/12/30 08:11:26;;;;;;;1.80;1.60;;;14.00;99.90;;;;;;5040748;28;20458;-78
2021/12/30 08:13:53;;;;;;;2.10;1.60;;;14.00;99.90;;;;;;5043573;28;20460;-79
2021/12/30 08:16:18;;;;;;;1.53;1.40;;;14.00;99.90;;;;;;5047066;28;20173;-78
2021/12/30 08:18:44;;;;;;;1.97;1.40;;;14.10;99.90;;;;;;5046189;28;20446;-78
2021/12/30 08:21:10;;;;;;;3.53;1.60;;;14.10;99.90;;;;;;5045983;28;20235;-79
2021/12/30 08:23:36;;;;;;;1.60;1.40;;;14.10;99.90;;;;;;5045459;28;20170;-78
2021/12/30 08:26:04;;;;;;;1.90;1.60;;;14.10;99.90;;;;;;5042861;28;20427;-77
2021/12/30 08:28:30;;;;;;;1.83;1.70;;;14.10;99.90;;;;;;5044604;28;20507;-79
2021/12/30 08:30:56;;;;;;;2.40;1.63;;;14.10;99.90;;;;;;5039138;28;20533;-77
2021/12/30 08:33:22;;;;;;;1.33;1.10;;;14.10;99.90;;;;;;5037994;28;20548;-78
2021/12/30 08:35:48;;;;;;;2.10;1.17;;;14.10;99.90;;;;;;5039648;28;20180;-79
2021/12/30 08:38:14;;;;;;;3.03;1.40;;;14.10;99.90;;;;;;5053144;28;20443;-79
2021/12/30 08:40:40;;;;;;;1.30;1.00;;;14.10;99.90;;;;;;5039117;28;20432;-78
2021/12/30 08:43:06;;;;;;;2.13;1.50;;;14.20;99.90;;;;;;5038266;28;20431;-78
2021/12/30 08:45:34;;;;;;;2.50;2.03;;;14.20;99.90;;;;;;5039673;28;20484;-79
2021/12/30 08:48:00;;;;;;;1.33;1.17;;;14.20;99.90;;;;;;5039287;28;20253;-79
2021/12/30 08:50:26;;;;;;;2.47;1.33;;;14.20;99.90;;;;;;5043226;28;20444;-79
2021/12/30 08:52:52;;;;;;;1.50;1.00;;;14.20;99.90;;;;;;5046663;28;20445;-77
2021/12/30 08:55:22;;;;;;;3.13;1.50;;;14.30;99.90;;;;;;5045591;28;20185;-79
2021/12/30 08:57:49;;;;;;;1.33;1.17;;;14.30;99.90;;;;;;5047516;28;20539;-79
2021/12/30 09:00:23;;;;;;;1.87;1.50;;;14.30;99.90;;;;;;5052067;28;20787;-79
2021/12/30 09:02:53;;;;;;;1.43;1.30;;;14.30;99.90;;;;;;5049181;28;20507;-78
2021/12/30 09:05:19;;;;;;;1.43;1.30;;;14.30;99.90;;;;;;5043086;28;20423;-76
2021/12/30 09:07:46;;;;;;;1.90;1.23;;;14.30;99.90;;;;;;5035684;28;20408;-76
2021/12/30 09:10:14;;;;;;;1.60;1.20;;;14.30;99.90;;;;;;5033953;28;20450;-75
2021/12/30 09:12:43;;;;;;;2.57;1.20;;;14.30;99.90;;;;;;5033303;28;20462;-77
2021/12/30 09:15:12;;;;;;;3.40;1.53;;;14.30;99.90;;;;;;5033994;28;20413;-75
2021/12/30 09:17:39;;;;;;;1.60;1.17;;;14.30;99.90;;;;;;5032099;28;20474;-77
2021/12/30 09:20:07;;;;;;;2.53;1.20;;;14.40;99.90;;;;;;5032152;28;20543;-76
2021/12/30 09:22:33;;;;;;;3.33;1.47;;;14.40;99.90;;;;;;5032392;28;20520;-76
2021/12/30 09:24:59;;;;;;;3.37;1.53;;;14.40;99.90;;;;;;5032709;28;20721;-75
2021/12/30 09:27:25;;;;;;;1.63;1.40;;;14.40;99.90;;;;;;5034118;28;20494;-76
2021/12/30 09:29:50;;;;;;;2.60;1.70;;;14.40;99.90;;;;;;5033370;28;20202;-76
2021/12/30 09:32:16;;;;;;;2.97;2.07;;;14.50;99.90;;;;;;5026415;28;20201;-75
2021/12/30 09:34:41;;;;;;;2.17;1.40;;;14.50;99.90;;;;;;5032187;28;20166;-75
2021/12/30 09:37:09;;;;;;;2.40;1.80;;;14.60;99.90;;;;;;5026694;28;20678;-75
2021/12/30 09:39:37;;;;;;;1.43;1.30;;;14.60;99.90;;;;;;5033232;28;20200;-76
2021/12/30 09:42:04;;;;;;;1.53;1.43;;;14.70;99.90;;;;;;5035112;28;20425;-75
2021/12/30 09:44:30;;;;;;;3.57;2.50;;;14.70;99.90;;;;;;5031258;28;20547;-76
2021/12/30 09:46:56;;;;;;;2.90;2.10;;;14.70;99.90;;;;;;5033297;28;20788;-77
2021/12/30 09:49:24;;;;;;;3.80;2.73;;;14.70;99.90;;;;;;5029923;28;20440;-74
2021/12/30 09:51:50;;;;;;;2.40;1.57;;;14.80;99.90;;;;;;5026148;28;20186;-75
2021/12/30 09:54:16;;;;;;;3.07;1.80;;;14.80;99.90;;;;;;5027532;28;20467;-76
2021/12/30 09:56:43;;;;;;;1.93;1.30;;;14.80;99.90;;;;;;5033174;28;20460;-75
2021/12/30 09:59:10;;;;;;;1.60;1.33;;;14.90;99.90;;;;;;5030920;28;20854;-76
2021/12/30 10:01:39;;;;;;;1.57;1.27;;;14.90;99.90;;;;;;5033117;28;20954;-76
2021/12/30 10:04:07;;;;;;;2.33;1.83;;;15.00;99.90;;;;;;5035012;28;20452;-76
2021/12/30 10:06:34;;;;;;;2.27;1.20;;;15.00;99.90;;;;;;5031692;28;20436;-77
2021/12/30 10:09:10;;;;;;;5.70;1.30;;;15.10;99.90;;;;;;5034327;28;20522;-76
2021/12/30 10:11:56;;;;;;;3.10;1.93;;;15.10;99.90;;;;;;5038911;28;20897;-76
2021/12/30 10:14:34;;;;;;;2.13;1.10;;;15.10;99.90;;;;;;5039039;28;20424;-76
2021/12/30 10:17:23;;;;;;;1.53;0.87;;;15.20;99.90;;;;;;5032616;28;20441;-76
2021/12/30 10:19:51;;;;;;;3.30;2.03;;;15.20;99.90;;;;;;5025954;28;20464;-77
2021/12/30 10:22:21;;;;;;;1.50;0.90;;;15.20;99.90;;;;;;5036108;28;20771;-77
2021/12/30 10:24:48;;;;;;;2.07;0.80;;;15.20;99.90;;;;;;5038143;28;20417;-77
2021/12/30 10:27:32;;;;;;;1.97;1.40;;;15.20;99.90;;;;;;5038167;28;20434;-77
2021/12/30 10:29:59;;;;;;;1.20;0.80;;;15.20;99.90;;;;;;5033771;28;21130;-77
2021/12/30 10:32:27;;;;;;;1.40;0.90;;;15.20;99.90;;;;;;5036093;28;20536;-77
2021/12/30 10:35:14;;;;;;;1.73;0.90;;;15.20;99.90;;;;;;5047831;28;20425;-76
2021/12/30 10:37:45;;;;;;;3.20;1.40;;;15.20;99.90;;;;;;5035340;28;20463;-76
2021/12/30 10:40:29;;;;;;;1.50;1.03;;;15.20;99.90;;;;;;5034251;28;20429;-78
2021/12/30 10:43:33;;;;;;;1.30;0.97;;;15.30;99.90;;;;;;5034887;28;20417;-75
2021/12/30 10:46:05;;;;;;;2.40;1.67;;;15.30;99.90;;;;;;5031193;28;20515;-77
2021/12/30 10:48:32;;;;;;;11.67;6.87;;;15.40;99.90;;;;;;5034609;28;20413;-76
2021/12/30 10:51:12;;;;;;;1.40;1.07;;;15.40;99.90;;;;;;5037350;28;20401;-76
2021/12/30 10:53:38;;;;;;;1.73;0.90;;;15.40;99.90;;;;;;5039639;28;20464;-77
2021/12/30 10:56:25;;;;;;;1.67;0.90;;;15.40;99.90;;;;;;5035476;28;20413;-78
2021/12/30 10:58:54;;;;;;;1.53;1.00;;;15.40;99.90;;;;;;5026937;28;20823;-76
2021/12/30 11:01:21;;;;;;;2.07;1.17;;;15.40;99.90;;;;;;5036041;28;20456;-75
2021/12/30 11:04:00;;;;;;;5.60;2.53;;;15.40;99.90;;;;;;5051148;28;20479;-76
2021/12/30 11:06:26;;;;;;;1.93;1.30;;;15.40;99.90;;;;;;5028480;28;20439;-76
2021/12/30 11:09:06;;;;;;;2.57;1.00;;;15.40;99.90;;;;;;5041144;28;20491;-77
2021/12/30 11:11:32;;;;;;;2.10;1.10;;;15.30;99.90;;;;;;5036207;28;20525;-76
2021/12/30 11:14:06;;;;;;;3.97;1.40;;;15.40;99.90;;;;;;5036687;28;20484;-77
2021/12/30 11:16:33;;;;;;;2.40;1.17;;;15.40;99.90;;;;;;5042821;28;20323;-77
2021/12/30 11:19:06;;;;;;;2.13;1.17;;;15.40;99.90;;;;;;5043018;28;20452;-77
2021/12/30 11:21:41;;;;;;;2.10;1.67;;;15.40;99.90;;;;;;5043392;28;20429;-77
2021/12/30 11:24:09;;;;;;;1.60;1.03;;;15.40;99.90;;;;;;5027245;28;20431;-77
2021/12/30 11:26:35;;;;;;;2.73;1.00;;;15.50;99.90;;;;;;5035271;28;20799;-76
2021/12/30 11:29:03;;;;;;;4.60;1.80;;;15.50;99.60;;;;;;5037232;28;20449;-76
2021/12/30 11:31:30;;;;;;;4.00;2.40;;;15.50;99.70;;;;;;5052551;28;20524;-75
2021/12/30 11:33:57;;;;;;;2.33;1.53;;;15.50;99.50;;;;;;5037347;28;20471;-77
2021/12/30 11:36:23;;;;;;;4.60;3.10;;;15.50;99.20;;;;;;5036406;28;20496;-75
2021/12/30 11:38:49;;;;;;;6.83;2.23;;;15.50;99.30;;;;;;5036999;28;20440;-77
2021/12/30 11:41:18;;;;;;;3.60;1.67;;;15.50;99.30;;;;;;5036777;28;20432;-75
2021/12/30 11:43:45;;;;;;;3.27;1.80;;;15.50;99.10;;;;;;5035087;28;20174;-78
2021/12/30 11:46:45;;;;;;;3.17;2.13;;;15.50;98.90;;;;;;5035776;28;20416;-75
2021/12/30 11:49:15;;;;;;;3.03;1.43;;;15.60;98.40;;;;;;5027076;28;20453;-76
2021/12/30 11:51:48;;;;;;;4.93;2.00;;;15.60;97.90;;;;;;5037315;28;20416;-77
2021/12/30 11:54:32;;;;;;;2.20;1.73;;;15.60;97.20;;;;;;5036433;28;20460;-75
2021/12/30 11:57:23;;;;;;;5.23;1.53;;;15.70;97.40;;;;;;5052072;28;20427;-76
2021/12/30 11:59:49;;;;;;;2.63;1.60;;;15.80;96.90;;;;;;5036093;28;20448;-77
2021/12/30 12:02:30;;;;;;;3.90;2.20;;;15.80;96.50;;;;;;5037466;28;20421;-77
2021/12/30 12:04:56;;;;;;;6.93;1.83;;;15.90;96.40;;;;;;5036931;28;20198;-77
2021/12/30 12:07:22;;;;;;;4.73;2.20;;;16.00;96.10;;;;;;5035907;28;20439;-76
2021/12/30 12:09:49;;;;;;;2.77;1.40;;;16.10;96.20;;;;;;5037447;28;20444;-77
2021/12/30 12:12:31;;;;;;;4.97;1.50;;;16.10;95.70;;;;;;5036798;28;20453;-75
2021/12/30 12:15:01;;;;;;;3.07;1.30;;;16.10;94.70;;;;;;5031217;28;20508;-76
2021/12/30 12:17:40;;;;;;;3.67;1.60;;;16.10;94.80;;;;;;5034438;28;20478;-76
2021/12/30 12:20:22;;;;;;;2.10;1.23;;;16.10;94.70;;;;;;5034311;28;20860;-76
2021/12/30 12:22:48;;;;;;;6.20;1.70;;;16.00;94.50;;;;;;5036573;28;20930;-74
2021/12/30 12:25:18;;;;;;;2.70;1.77;;;16.00;94.40;;;;;;5052239;28;20750;-75
2021/12/30 12:27:52;;;;;;;4.40;2.33;;;16.00;93.90;;;;;;5038497;28;20500;-76
2021/12/30 12:30:28;;;;;;;2.20;1.23;;;16.00;94.20;;;;;;5036183;28;20449;-75
2021/12/30 12:32:55;;;;;;;2.07;1.40;;;15.90;94.00;;;;;;5036835;28;20452;-75
2021/12/30 12:35:20;;;;;;;5.43;1.83;;;15.90;94.00;;;;;;5033298;28;20483;-75
2021/12/30 12:37:52;;;;;;;3.63;1.40;;;16.00;93.80;;;;;;5036526;28;20421;-75
2021/12/30 12:40:27;;;;;;;4.33;1.90;;;15.90;93.60;;;;;;5036865;28;20186;-74
2021/12/30 12:43:11;;;;;;;4.30;1.80;;;15.90;93.80;;;;;;5037345;28;20537;-76
2021/12/30 12:45:59;;;;;;;3.83;1.87;;;16.00;94.00;;;;;;5035806;28;20433;-75
2021/12/30 12:48:26;;;;;;;3.10;1.60;;;15.90;93.70;;;;;;5048586;28;20459;-74